sensor_id;sensor_type;location;lat;lon;timestamp;temperature;humidity
40696;DHT22;40425;51.102;17.208;2022-12-20T00:02:07;3.30;99.90
40696;DHT22;40425;51.102;17.208;2022-12-20T00:07:08;3.30;99.90
40696;DHT22;40425;51.102;17.208;2022-12-20T00:12:09;3.20;99.90
40696;DHT22;40425;51.102;17.208;2022-12-20T00:17:10;3.10;99.90
40696;DHT22;40425;51.102;17.208;2022-12-20T00:22:11;3.10;99.90
40696;DHT22;40425;51.102;17.208;2022-12-20T00:27:12;3.00;99.90
40696;DHT22;40425;51.102;17.208;2022-12-20T00:32:13;3.00;99.90
40696;DHT22;40425;51.102;17.208;2022-12-20T00:37:14;2.90;99.90
40696;DHT22;40425;51.102;17.208;2022-12-20T00:42:15;2.90;99.90
40696;DHT22;40425;51.102;17.208;2022-12-20T00:47:15;2.90;99.90
40696;DHT22;40425;51.102;17.208;2022-12-20T00:52:17;2.90;99.90
40696;DHT22;40425;51.102;17.208;2022-12-20T00:57:17;2.90;99.90
40696;DHT22;40425;51.102;17.208;2022-12-20T01:02:18;2.90;99.90
40696;DHT22;40425;51.102;17.208;2022-12-20T01:07:19;2.80;99.90
40696;DHT22;40425;51.102;17.208;2022-12-20T01:12:22;2.90;99.90
40696;DHT22;40425;51.102;17.208;2022-12-20T01:17:23;2.90;99.90
40696;DHT22;40425;51.102;17.208;2022-12-20T01:22:24;2.80;99.90
40696;DHT22;40425;51.102;17.208;2022-12-20T01:27:25;2.70;99.90
40696;DHT22;40425;51.102;17.208;2022-12-20T01:32:26;2.70;99.90
40696;DHT22;40425;51.102;17.208;2022-12-20T01:37:27;2.70;99.90
40696;DHT22;40425;51.102;17.208;2022-12-20T01:42:27;2.70;99.90
40696;DHT22;40425;51.102;17.208;2022-12-20T01:47:31;2.60;99.90
40696;DHT22;40425;51.102;17.208;2022-12-20T01:52:40;2.60;99.90
40696;DHT22;40425;51.102;17.208;2022-12-20T02:03:07;2.60;99.90
40696;DHT22;40425;51.102;17.208;2022-12-20T02:08:10;2.60;99.90
40696;DHT22;40425;51.102;17.208;2022-12-20T02:13:23;2.60;99.90
40696;DHT22;40425;51.102;17.208;2022-12-20T02:18:37;2.60;99.90
40696;DHT22;40425;51.102;17.208;2022-12-20T02:34:27;2.70;99.90
40696;DHT22;40425;51.102;17.208;2022-12-20T02:39:31;2.70;99.90
40696;DHT22;40425;51.102;17.208;2022-12-20T02:44:36;2.80;99.90
40696;DHT22;40425;51.102;17.208;2022-12-20T02:49:56;2.80;99.90
40696;DHT22;40425;51.102;17.208;2022-12-20T02:54:59;2.80;99.90
40696;DHT22;40425;51.102;17.208;2022-12-20T03:05:07;2.80;99.90
40696;DHT22;40425;51.102;17.208;2022-12-20T03:10:09;2.80;99.90
40696;DHT22;40425;51.102;17.208;2022-12-20T03:15:10;2.80;99.90
40696;DHT22;40425;51.102;17.208;2022-12-20T03:20:11;2.80;99.90
40696;DHT22;40425;51.102;17.208;2022-12-20T03:25:13;2.90;99.90
40696;DHT22;40425;51.102;17.208;2022-12-20T03:30:14;3.00;99.90
40696;DHT22;40425;51.102;17.208;2022-12-20T03:35:15;3.00;99.90
40696;DHT22;40425;51.102;17.208;2022-12-20T03:40:16;3.00;99.90
40696;DHT22;40425;51.102;17.208;2022-12-20T03:45:17;3.00;99.90
40696;DHT22;40425;51.102;17.208;2022-12-20T03:50:18;3.00;99.90
40696;DHT22;40425;51.102;17.208;2022-12-20T03:55:19;2.90;99.90
40696;DHT22;40425;51.102;17.208;2022-12-20T04:00:20;2.90;99.90
40696;DHT22;40425;51.102;17.208;2022-12-20T04:05:21;2.70;99.90
40696;DHT22;40425;51.102;17.208;2022-12-20T04:10:22;2.60;99.90
40696;DHT22;40425;51.102;17.208;2022-12-20T04:15:23;2.50;99.90
40696;DHT22;40425;51.102;17.208;2022-12-20T04:20:24;2.50;99.90
40696;DHT22;40425;51.102;17.208;2022-12-20T04:25:24;2.60;99.90
40696;DHT22;40425;51.102;17.208;2022-12-20T04:30:25;2.60;99.90
40696;DHT22;40425;51.102;17.208;2022-12-20T04:35:26;2.60;99.90
40696;DHT22;40425;51.102;17.208;2022-12-20T04:40:27;2.60;99.90
40696;DHT22;40425;51.102;17.208;2022-12-20T04:45:28;2.70;99.90
40696;DHT22;40425;51.102;17.208;2022-12-20T04:50:29;2.80;99.90
40696;DHT22;40425;51.102;17.208;2022-12-20T04:55:30;2.80;99.90
40696;DHT22;40425;51.102;17.208;2022-12-20T05:00:32;2.80;99.90
40696;DHT22;40425;51.102;17.208;2022-12-20T05:05:33;2.80;99.90
40696;DHT22;40425;51.102;17.208;2022-12-20T05:10:34;2.80;99.90
40696;DHT22;40425;51.102;17.208;2022-12-20T05:15:35;2.80;99.90
40696;DHT22;40425;51.102;17.208;2022-12-20T05:20:36;2.70;99.90
40696;DHT22;40425;51.102;17.208;2022-12-20T05:25:39;2.70;99.90
40696;DHT22;40425;51.102;17.208;2022-12-20T05:31:08;2.70;99.90
40696;DHT22;40425;51.102;17.208;2022-12-20T05:36:09;2.70;99.90
40696;DHT22;40425;51.102;17.208;2022-12-20T05:41:10;2.60;99.90
40696;DHT22;40425;51.102;17.208;2022-12-20T05:46:11;2.50;99.90
40696;DHT22;40425;51.102;17.208;2022-12-20T05:51:12;2.40;99.90
40696;DHT22;40425;51.102;17.208;2022-12-20T05:56:13;2.40;99.90
40696;DHT22;40425;51.102;17.208;2022-12-20T06:01:13;2.50;99.90
40696;DHT22;40425;51.102;17.208;2022-12-20T06:06:14;2.60;99.90
40696;DHT22;40425;51.102;17.208;2022-12-20T06:11:15;2.70;99.90
40696;DHT22;40425;51.102;17.208;2022-12-20T06:16:16;2.80;99.90
40696;DHT22;40425;51.102;17.208;2022-12-20T06:21:20;3.00;99.90
40696;DHT22;40425;51.102;17.208;2022-12-20T06:26:21;3.00;99.90
40696;DHT22;40425;51.102;17.208;2022-12-20T06:31:24;3.10;99.90
40696;DHT22;40425;51.102;17.208;2022-12-20T06:36:25;3.20;99.90
40696;DHT22;40425;51.102;17.208;2022-12-20T06:41:26;3.20;99.90
40696;DHT22;40425;51.102;17.208;2022-12-20T06:46:27;3.30;99.90
40696;DHT22;40425;51.102;17.208;2022-12-20T06:51:28;3.40;99.90
40696;DHT22;40425;51.102;17.208;2022-12-20T06:56:28;3.40;99.90
40696;DHT22;40425;51.102;17.208;2022-12-20T07:01:29;3.50;99.90
40696;DHT22;40425;51.102;17.208;2022-12-20T07:06:30;3.50;99.90
40696;DHT22;40425;51.102;17.208;2022-12-20T07:11:31;3.60;99.90
40696;DHT22;40425;51.102;17.208;2022-12-20T07:16:32;3.70;99.90
40696;DHT22;40425;51.102;17.208;2022-12-20T07:21:33;3.80;99.90
40696;DHT22;40425;51.102;17.208;2022-12-20T07:26:35;3.80;99.90
40696;DHT22;40425;51.102;17.208;2022-12-20T07:31:36;3.90;99.90
40696;DHT22;40425;51.102;17.208;2022-12-20T07:36:37;3.90;99.90
40696;DHT22;40425;51.102;17.208;2022-12-20T07:41:38;4.00;99.90
40696;DHT22;40425;51.102;17.208;2022-12-20T07:46:39;4.00;99.90
40696;DHT22;40425;51.102;17.208;2022-12-20T07:51:49;4.00;99.90
40696;DHT22;40425;51.102;17.208;2022-12-20T07:56:55;4.10;99.90
40696;DHT22;40425;51.102;17.208;2022-12-20T08:01:57;4.20;99.90
40696;DHT22;40425;51.102;17.208;2022-12-20T08:06:59;4.30;99.90
40696;DHT22;40425;51.102;17.208;2022-12-20T08:12:01;4.40;99.90
40696;DHT22;40425;51.102;17.208;2022-12-20T08:17:02;4.50;99.90
40696;DHT22;40425;51.102;17.208;2022-12-20T08:22:03;4.50;99.90
40696;DHT22;40425;51.102;17.208;2022-12-20T08:27:04;4.60;99.90
40696;DHT22;40425;51.102;17.208;2022-12-20T08:32:05;4.70;99.90
40696;DHT22;40425;51.102;17.208;2022-12-20T08:37:05;4.70;99.90
40696;DHT22;40425;51.102;17.208;2022-12-20T08:42:06;4.80;99.90
40696;DHT22;40425;51.102;17.208;2022-12-20T08:47:07;4.60;99.90
40696;DHT22;40425;51.102;17.208;2022-12-20T08:52:08;4.60;99.90
40696;DHT22;40425;51.102;17.208;2022-12-20T08:57:09;4.70;99.90
40696;DHT22;40425;51.102;17.208;2022-12-20T09:02:10;4.80;99.90
40696;DHT22;40425;51.102;17.208;2022-12-20T09:07:10;4.80;99.90
40696;DHT22;40425;51.102;17.208;2022-12-20T09:12:11;4.90;99.90
40696;DHT22;40425;51.102;17.208;2022-12-20T09:17:12;5.00;99.90
40696;DHT22;40425;51.102;17.208;2022-12-20T09:22:13;5.20;99.90
40696;DHT22;40425;51.102;17.208;2022-12-20T09:27:15;5.30;99.90
40696;DHT22;40425;51.102;17.208;2022-12-20T09:32:16;5.50;99.90
40696;DHT22;40425;51.102;17.208;2022-12-20T09:37:20;5.70;99.90
40696;DHT22;40425;51.102;17.208;2022-12-20T09:42:26;5.70;99.90
40696;DHT22;40425;51.102;17.208;2022-12-20T09:47:27;5.70;99.90
40696;DHT22;40425;51.102;17.208;2022-12-20T09:58:13;5.60;99.90
40696;DHT22;40425;51.102;17.208;2022-12-20T10:03:34;5.60;99.90
40696;DHT22;40425;51.102;17.208;2022-12-20T10:08:54;5.80;99.90
40696;DHT22;40425;51.102;17.208;2022-12-20T10:24:24;6.20;99.90
40696;DHT22;40425;51.102;17.208;2022-12-20T10:29:25;6.00;99.90
40696;DHT22;40425;51.102;17.208;2022-12-20T10:34:26;5.80;99.90
40696;DHT22;40425;51.102;17.208;2022-12-20T10:39:41;5.60;99.90
40696;DHT22;40425;51.102;17.208;2022-12-20T10:44:43;5.80;99.90
40696;DHT22;40425;51.102;17.208;2022-12-20T10:49:44;5.80;99.90
40696;DHT22;40425;51.102;17.208;2022-12-20T10:54:45;5.80;99.90
40696;DHT22;40425;51.102;17.208;2022-12-20T10:59:58;5.90;99.90
40696;DHT22;40425;51.102;17.208;2022-12-20T11:10:22;6.40;99.90
40696;DHT22;40425;51.102;17.208;2022-12-20T11:15:34;6.50;99.90
40696;DHT22;40425;51.102;17.208;2022-12-20T11:31:40;7.00;99.90
40696;DHT22;40425;51.102;17.208;2022-12-20T11:37:15;7.00;99.90
40696;DHT22;40425;51.102;17.208;2022-12-20T11:53:24;6.50;99.90
40696;DHT22;40425;51.102;17.208;2022-12-20T12:04:01;6.70;99.90
40696;DHT22;40425;51.102;17.208;2022-12-20T12:09:18;6.40;99.90
40696;DHT22;40425;51.102;17.208;2022-12-20T12:19:49;6.30;99.90
40696;DHT22;40425;51.102;17.208;2022-12-20T12:24:55;6.40;99.90
40696;DHT22;40425;51.102;17.208;2022-12-20T12:29:57;6.40;99.90
40696;DHT22;40425;51.102;17.208;2022-12-20T12:45:57;6.20;99.90
40696;DHT22;40425;51.102;17.208;2022-12-20T12:50:59;6.10;99.90
40696;DHT22;40425;51.102;17.208;2022-12-20T13:01:52;6.10;99.90
40696;DHT22;40425;51.102;17.208;2022-12-20T13:17:48;5.80;99.90
40696;DHT22;40425;51.102;17.208;2022-12-20T13:33:37;5.70;99.90
40696;DHT22;40425;51.102;17.208;2022-12-20T13:38:49;5.90;99.90
40696;DHT22;40425;51.102;17.208;2022-12-20T13:43:51;5.80;99.90
40696;DHT22;40425;51.102;17.208;2022-12-20T13:49:03;5.60;99.90
40696;DHT22;40425;51.102;17.208;2022-12-20T13:54:16;5.40;99.90
40696;DHT22;40425;51.102;17.208;2022-12-20T13:59:29;5.30;99.90
40696;DHT22;40425;51.102;17.208;2022-12-20T14:04:43;5.20;99.90
40696;DHT22;40425;51.102;17.208;2022-12-20T14:09:46;5.00;99.90
40696;DHT22;40425;51.102;17.208;2022-12-20T14:14:54;4.80;99.90
40696;DHT22;40425;51.102;17.208;2022-12-20T14:20:16;4.80;99.90
40696;DHT22;40425;51.102;17.208;2022-12-20T14:25:32;4.60;99.90
40696;DHT22;40425;51.102;17.208;2022-12-20T14:30:40;4.50;99.90
40696;DHT22;40425;51.102;17.208;2022-12-20T14:35:47;4.40;99.90
40696;DHT22;40425;51.102;17.208;2022-12-20T14:40:51;4.20;99.90
40696;DHT22;40425;51.102;17.208;2022-12-20T14:46:26;4.20;99.90
40696;DHT22;40425;51.102;17.208;2022-12-20T14:51:28;4.10;99.90
40696;DHT22;40425;51.102;17.208;2022-12-20T14:56:29;4.10;99.90
40696;DHT22;40425;51.102;17.208;2022-12-20T15:01:31;4.10;99.90
40696;DHT22;40425;51.102;17.208;2022-12-20T15:06:36;4.00;99.90
40696;DHT22;40425;51.102;17.208;2022-12-20T15:11:41;4.00;99.90
40696;DHT22;40425;51.102;17.208;2022-12-20T15:16:46;4.10;99.90
40696;DHT22;40425;51.102;17.208;2022-12-20T15:21:48;3.80;99.90
40696;DHT22;40425;51.102;17.208;2022-12-20T15:26:50;3.70;99.90
40696;DHT22;40425;51.102;17.208;2022-12-20T15:32:06;3.70;99.90
40696;DHT22;40425;51.102;17.208;2022-12-20T15:37:13;3.70;99.90
40696;DHT22;40425;51.102;17.208;2022-12-20T15:42:17;3.80;99.90
40696;DHT22;40425;51.102;17.208;2022-12-20T15:47:18;3.70;99.90
40696;DHT22;40425;51.102;17.208;2022-12-20T15:52:21;3.70;99.90
40696;DHT22;40425;51.102;17.208;2022-12-20T15:57:23;3.70;99.90
40696;DHT22;40425;51.102;17.208;2022-12-20T16:02:27;3.70;99.90
40696;DHT22;40425;51.102;17.208;2022-12-20T16:07:29;3.80;99.90
40696;DHT22;40425;51.102;17.208;2022-12-20T16:12:35;3.80;99.90
40696;DHT22;40425;51.102;17.208;2022-12-20T16:17:37;3.80;99.90
40696;DHT22;40425;51.102;17.208;2022-12-20T16:22:38;3.80;99.90
40696;DHT22;40425;51.102;17.208;2022-12-20T16:27:39;3.80;99.90
40696;DHT22;40425;51.102;17.208;2022-12-20T16:32:39;3.80;99.90
40696;DHT22;40425;51.102;17.208;2022-12-20T16:37:40;3.80;99.90
40696;DHT22;40425;51.102;17.208;2022-12-20T16:42:41;3.80;99.90
40696;DHT22;40425;51.102;17.208;2022-12-20T16:47:42;3.80;99.90
40696;DHT22;40425;51.102;17.208;2022-12-20T16:52:43;3.70;99.90
40696;DHT22;40425;51.102;17.208;2022-12-20T16:57:44;3.80;99.90
40696;DHT22;40425;51.102;17.208;2022-12-20T17:02:45;3.90;99.90
40696;DHT22;40425;51.102;17.208;2022-12-20T17:07:46;4.00;99.90
40696;DHT22;40425;51.102;17.208;2022-12-20T17:12:47;4.00;99.90
40696;DHT22;40425;51.102;17.208;2022-12-20T17:17:48;3.90;99.90
40696;DHT22;40425;51.102;17.208;2022-12-20T17:22:53;4.00;99.90
40696;DHT22;40425;51.102;17.208;2022-12-20T17:27:54;3.90;99.90
40696;DHT22;40425;51.102;17.208;2022-12-20T17:32:56;3.80;99.90
40696;DHT22;40425;51.102;17.208;2022-12-20T17:37:58;4.00;99.90
40696;DHT22;40425;51.102;17.208;2022-12-20T17:43:01;4.00;99.90
40696;DHT22;40425;51.102;17.208;2022-12-20T17:48:03;4.10;99.90
40696;DHT22;40425;51.102;17.208;2022-12-20T17:53:04;4.00;99.90
40696;DHT22;40425;51.102;17.208;2022-12-20T17:58:05;4.00;99.90
40696;DHT22;40425;51.102;17.208;2022-12-20T18:03:05;3.90;99.90
40696;DHT22;40425;51.102;17.208;2022-12-20T18:08:07;3.90;99.90
40696;DHT22;40425;51.102;17.208;2022-12-20T18:13:11;3.90;99.90
40696;DHT22;40425;51.102;17.208;2022-12-20T18:18:13;4.00;99.90
40696;DHT22;40425;51.102;17.208;2022-12-20T18:23:14;3.90;99.90
40696;DHT22;40425;51.102;17.208;2022-12-20T18:28:17;3.90;99.90
40696;DHT22;40425;51.102;17.208;2022-12-20T18:33:18;3.80;99.90
40696;DHT22;40425;51.102;17.208;2022-12-20T18:38:20;3.80;99.90
40696;DHT22;40425;51.102;17.208;2022-12-20T18:43:23;3.80;99.90
40696;DHT22;40425;51.102;17.208;2022-12-20T18:48:24;3.90;99.90
40696;DHT22;40425;51.102;17.208;2022-12-20T18:53:24;4.00;99.90
40696;DHT22;40425;51.102;17.208;2022-12-20T18:58:25;4.00;99.90
40696;DHT22;40425;51.102;17.208;2022-12-20T19:03:26;4.00;99.90
40696;DHT22;40425;51.102;17.208;2022-12-20T19:08:28;4.00;99.90
40696;DHT22;40425;51.102;17.208;2022-12-20T19:13:32;4.00;99.90
40696;DHT22;40425;51.102;17.208;2022-12-20T19:18:43;4.00;99.90
40696;DHT22;40425;51.102;17.208;2022-12-20T19:23:48;4.00;99.90
40696;DHT22;40425;51.102;17.208;2022-12-20T19:28:50;4.10;99.90
40696;DHT22;40425;51.102;17.208;2022-12-20T19:34:02;4.10;99.90
40696;DHT22;40425;51.102;17.208;2022-12-20T19:39:06;4.20;99.90
40696;DHT22;40425;51.102;17.208;2022-12-20T19:44:07;4.10;99.90
40696;DHT22;40425;51.102;17.208;2022-12-20T19:49:10;3.90;99.90
40696;DHT22;40425;51.102;17.208;2022-12-20T19:54:13;3.80;99.90
40696;DHT22;40425;51.102;17.208;2022-12-20T19:59:15;3.80;99.90
40696;DHT22;40425;51.102;17.208;2022-12-20T20:04:19;3.80;99.90
40696;DHT22;40425;51.102;17.208;2022-12-20T20:09:29;3.80;99.90
40696;DHT22;40425;51.102;17.208;2022-12-20T20:14:30;3.90;99.90
40696;DHT22;40425;51.102;17.208;2022-12-20T20:19:31;3.90;99.90
40696;DHT22;40425;51.102;17.208;2022-12-20T20:24:33;4.00;99.90
40696;DHT22;40425;51.102;17.208;2022-12-20T20:29:34;3.90;99.90
40696;DHT22;40425;51.102;17.208;2022-12-20T20:34:36;3.90;99.90
40696;DHT22;40425;51.102;17.208;2022-12-20T20:39:36;4.00;99.90
40696;DHT22;40425;51.102;17.208;2022-12-20T20:44:37;3.90;99.90
40696;DHT22;40425;51.102;17.208;2022-12-20T20:49:39;4.00;99.90
40696;DHT22;40425;51.102;17.208;2022-12-20T20:54:40;4.00;99.90
40696;DHT22;40425;51.102;17.208;2022-12-20T20:59:41;4.00;99.90
40696;DHT22;40425;51.102;17.208;2022-12-20T21:04:43;4.10;99.90
40696;DHT22;40425;51.102;17.208;2022-12-20T21:09:44;4.20;99.90
40696;DHT22;40425;51.102;17.208;2022-12-20T21:14:46;4.10;99.90
40696;DHT22;40425;51.102;17.208;2022-12-20T21:19:48;4.00;99.90
40696;DHT22;40425;51.102;17.208;2022-12-20T21:24:50;4.10;99.90
40696;DHT22;40425;51.102;17.208;2022-12-20T21:29:51;4.10;99.90
40696;DHT22;40425;51.102;17.208;2022-12-20T21:34:52;4.20;99.90
40696;DHT22;40425;51.102;17.208;2022-12-20T21:39:53;4.20;99.90
40696;DHT22;40425;51.102;17.208;2022-12-20T21:44:54;4.20;99.90
40696;DHT22;40425;51.102;17.208;2022-12-20T21:49:55;4.10;99.90
40696;DHT22;40425;51.102;17.208;2022-12-20T21:54:56;4.10;99.90
40696;DHT22;40425;51.102;17.208;2022-12-20T21:59:57;3.90;99.90
40696;DHT22;40425;51.102;17.208;2022-12-20T22:04:58;3.90;99.90
40696;DHT22;40425;51.102;17.208;2022-12-20T22:09:59;4.00;99.90
40696;DHT22;40425;51.102;17.208;2022-12-20T22:15:00;3.90;99.90
40696;DHT22;40425;51.102;17.208;2022-12-20T22:20:01;3.90;99.90
40696;DHT22;40425;51.102;17.208;2022-12-20T22:25:02;3.80;99.90
40696;DHT22;40425;51.102;17.208;2022-12-20T22:30:03;3.80;99.90
40696;DHT22;40425;51.102;17.208;2022-12-20T22:35:05;3.70;99.90
40696;DHT22;40425;51.102;17.208;2022-12-20T22:40:06;3.70;99.90
40696;DHT22;40425;51.102;17.208;2022-12-20T22:45:08;3.60;99.90
40696;DHT22;40425;51.102;17.208;2022-12-20T22:50:10;3.60;99.90
40696;DHT22;40425;51.102;17.208;2022-12-20T22:55:11;3.60;99.90
40696;DHT22;40425;51.102;17.208;2022-12-20T23:00:12;3.50;99.90
40696;DHT22;40425;51.102;17.208;2022-12-20T23:05:13;3.40;99.90
40696;DHT22;40425;51.102;17.208;2022-12-20T23:10:17;3.20;99.90
40696;DHT22;40425;51.102;17.208;2022-12-20T23:15:37;3.10;99.90
40696;DHT22;40425;51.102;17.208;2022-12-20T23:20:40;3.00;99.90
40696;DHT22;40425;51.102;17.208;2022-12-20T23:26:10;2.80;99.90
40696;DHT22;40425;51.102;17.208;2022-12-20T23:31:12;2.80;99.90
40696;DHT22;40425;51.102;17.208;2022-12-20T23:36:13;2.70;99.90
40696;DHT22;40425;51.102;17.208;2022-12-20T23:41:14;2.70;99.90
40696;DHT22;40425;51.102;17.208;2022-12-20T23:46:17;2.70;99.90
40696;DHT22;40425;51.102;17.208;2022-12-20T23:51:19;2.70;99.90
40696;DHT22;40425;51.102;17.208;2022-12-20T23:56:21;2.70;99.90
